MDT,Max TemperatureF,Mean TemperatureF,Min TemperatureF,Max Dew PointF,MeanDew PointF,Min DewpointF,Max Humidity, Mean Humidity, Min Humidity, Max Sea Level PressureIn, Mean Sea Level PressureIn, Min Sea Level PressureIn, Max VisibilityMiles, Mean VisibilityMiles, Min VisibilityMiles, Max Wind SpeedMPH, Mean Wind SpeedMPH, Max Gust SpeedMPH,PrecipitationIn, CloudCover, Events, WindDirDegrees
2012-5-1,83,68,53,56,49,30,100,58,16,29.74,29.63,29.49,10,6,0,20,7,24,0.00,3,Fog,192
2012-5-2,83,64,44,50,42,33,83,52,21,29.79,29.68,29.62,10,10,10,24,8,31,0.00,0,,32
2012-5-3,84,66,47,56,45,37,86,53,20,29.92,29.79,29.72,10,10,10,20,8,26,0.00,0,,17
2012-5-4,91,73,55,57,49,34,100,57,14,29.84,29.74,29.66,10,7,0,15,8,20,0.00,1,Fog,167
2012-5-5,91,70,51,60,49,38,87,58,29,29.85,29.67,29.61,10,10,10,36,13,47,0.00,1,,343
2012-5-6,69,56,43,54,41,30,80,55,30,30.17,30.02,29.76,10,10,10,36,19,47,0.00,4,,11
2012-5-7,59,51,43,41,37,33,77,60,43,30.35,30.23,30.15,10,10,10,20,8,25,0.06,7,Rain,353
2012-5-8,71,56,41,42,34,27,83,52,20,30.20,30.13,30.04,10,10,10,20,8,23,0.00,2,,319
2012-5-9,80,60,39,36,30,26,64,40,15,30.12,29.96,29.81,10,10,10,18,12,23,0.00,0,,190
2012-5-10,86,68,49,40,33,25,50,31,11,29.80,29.71,29.62,10,9,2,24,15,31,0.00,0,,196
2012-5-11,65,53,40,42,35,30,76,53,30,30.32,30.10,29.74,10,10,10,26,15,36,0.00,2,,26
2012-5-12,49,45,40,44,40,31,93,78,62,30.44,30.38,30.31,10,10,8,14,6,16,0.16,8,Rain,30
2012-5-13,71,56,40,46,43,39,100,68,36,30.36,30.27,30.15,10,9,2,12,4,18,0.00,5,,171
2012-5-14,80,62,44,45,33,18,86,48,10,30.20,30.11,30.03,10,10,10,12,6,20,0.00,0,,273
2012-5-15,88,68,47,39,31,18,66,37,8,30.10,30.04,30.00,10,10,10,14,7,28,0.00,0,,310
2012-5-16,89,66,43,37,32,25,70,40,10,30.09,29.95,29.82,10,10,9,30,16,37,0.00,0,,164
2012-5-17,90,71,51,45,37,25,71,41,10,29.81,29.70,29.62,10,10,9,35,13,44,T,1,Thunderstorm,182
2012-5-18,94,71,47,46,40,28,82,48,14,29.62,29.52,29.40,10,10,10,33,15,41,0.00,0,,170
2012-5-19,64,53,41,52,48,36,96,66,36,30.15,29.87,29.47,10,10,7,35,19,41,0.03,4,Rain,338
2012-5-20,75,57,39,48,40,36,100,63,25,30.26,30.20,30.15,10,10,9,16,7,22,0.00,0,,179
2012-5-21,83,65,47,54,46,36,67,49,31,30.23,30.08,29.91,10,10,10,30,18,38,0.00,0,,172
2012-5-22,96,77,57,54,50,37,86,50,14,29.90,29.64,29.39,10,10,10,28,19,36,0.00,0,,173
2012-5-23,81,66,50,52,45,41,77,52,26,29.61,29.44,29.30,10,10,9,33,20,43,0.07,1,Rain-Thunderstorm,1
2012-5-24,74,61,47,49,45,33,93,58,23,29.80,29.63,29.47,10,9,0,30,9,38,0.12,5,Fog-Rain-Thunderstorm,327
2012-5-25,75,61,47,59,50,41,90,64,38,29.86,29.78,29.69,10,10,7,24,15,32,0.00,5,,92
2012-5-26,97,78,58,59,47,36,90,51,12,29.68,29.59,29.46,10,10,6,49,25,61,0.00,0,,178
2012-5-27,88,69,49,55,35,5,78,42,5,29.77,29.61,29.48,10,10,10,25,13,35,0.00,0,,253
2012-5-28,81,61,40,30,25,17,62,36,9,29.99,29.86,29.80,10,10,10,22,8,30,0.00,0,,265
2012-5-29,82,62,42,41,34,30,67,42,16,30.09,29.96,29.89,10,10,10,18,9,24,0.00,0,,69
2012-5-30,91,70,48,52,44,25,83,52,21,30.08,29.86,29.69,10,10,8,36,13,45,0.01,1,Thunderstorm,108
2012-5-31,77,60,42,43,38,32,89,55,21,30.09,30.02,29.95,10,10,10,23,11,38,0.00,3,,339